KTPF/TPF METAR and TAF weather

Enter ICAO airport designator
Station Type Date Time Source
KTPF METAR 2020/09/18 23:15 UTC NOAA

KTPF 182315Z AUTO 30004KT 10SM OVC110 29/22 A2989 RMK AO2


Station Type Date Time Source
KTPF Decoded METAR 2020/09/18 23:15 UTC NOAA

Tampa, Peter O Knight Airport, FL, United States (KTPF) 27-54-56N 082-26-57W
Sep 18, 2020 - 07:15 PM EDT / 2020.09.18 2315 UTC
Wind: from the WNW (300 degrees) at 5 MPH (4 KT):0
Visibility: 10 mile(s):0
Sky conditions: overcast
Temperature: 84 F (29 C)
Dew Point: 71 F (22 C)
Relative Humidity: 65%
Pressure (altimeter): 29.89 in. Hg (1012 hPa)
ob: KTPF 182315Z AUTO 30004KT 10SM OVC110 29/22 A2989 RMK AO2
cycle: 23

Station Type Date Time Source
KTPF TAF UTC NOAA

Error!

Example: see airport list